sensor_id;sensor_type;location;lat;lon;timestamp;temperature;humidity
74458;SHT31;62896;51.032;3.712;2023-04-24T00:02:56;9.5;93
74458;SHT31;62896;51.032;3.712;2023-04-24T00:06:16;9.5;93
74458;SHT31;62896;51.032;3.712;2023-04-24T00:09:36;9.5;93
74458;SHT31;62896;51.032;3.712;2023-04-24T00:12:56;9.5;93
74458;SHT31;62896;51.032;3.712;2023-04-24T00:16:16;9.5;93
74458;SHT31;62896;51.032;3.712;2023-04-24T00:19:36;9.5;93
74458;SHT31;62896;51.032;3.712;2023-04-24T00:22:56;9.5;93
74458;SHT31;62896;51.032;3.712;2023-04-24T00:26:16;9.5;92
74458;SHT31;62896;51.032;3.712;2023-04-24T00:29:36;9.5;92
74458;SHT31;62896;51.032;3.712;2023-04-24T00:32:56;9.5;92
74458;SHT31;62896;51.032;3.712;2023-04-24T00:36:16;9.5;92
74458;SHT31;62896;51.032;3.712;2023-04-24T00:39:36;9.5;92
74458;SHT31;62896;51.032;3.712;2023-04-24T00:42:56;9.5;92
74458;SHT31;62896;51.032;3.712;2023-04-24T00:46:16;9.3;92
74458;SHT31;62896;51.032;3.712;2023-04-24T00:49:36;9.3;92
74458;SHT31;62896;51.032;3.712;2023-04-24T00:52:56;9.3;92
74458;SHT31;62896;51.032;3.712;2023-04-24T00:56:16;9.4;92
74458;SHT31;62896;51.032;3.712;2023-04-24T00:59:36;9.4;92
74458;SHT31;62896;51.032;3.712;2023-04-24T01:02:56;9.4;92
74458;SHT31;62896;51.032;3.712;2023-04-24T01:06:16;9.4;92
74458;SHT31;62896;51.032;3.712;2023-04-24T01:09:36;9.4;92
74458;SHT31;62896;51.032;3.712;2023-04-24T01:12:56;9.4;92
74458;SHT31;62896;51.032;3.712;2023-04-24T01:16:16;9.2;91
74458;SHT31;62896;51.032;3.712;2023-04-24T01:19:36;9.2;91
74458;SHT31;62896;51.032;3.712;2023-04-24T01:22:56;9.2;91
74458;SHT31;62896;51.032;3.712;2023-04-24T01:26:17;9.1;91
74458;SHT31;62896;51.032;3.712;2023-04-24T01:29:36;9.1;91
74458;SHT31;62896;51.032;3.712;2023-04-24T01:32:56;9.1;91
74458;SHT31;62896;51.032;3.712;2023-04-24T01:36:16;9.1;92
74458;SHT31;62896;51.032;3.712;2023-04-24T01:39:36;9.1;92
74458;SHT31;62896;51.032;3.712;2023-04-24T01:42:56;9.1;92
74458;SHT31;62896;51.032;3.712;2023-04-24T01:46:16;9;92
74458;SHT31;62896;51.032;3.712;2023-04-24T01:49:37;9;92
74458;SHT31;62896;51.032;3.712;2023-04-24T01:52:56;9;92
74458;SHT31;62896;51.032;3.712;2023-04-24T01:56:16;8.9;94
74458;SHT31;62896;51.032;3.712;2023-04-24T01:59:36;8.9;94
74458;SHT31;62896;51.032;3.712;2023-04-24T02:02:56;8.9;94
74458;SHT31;62896;51.032;3.712;2023-04-24T02:06:16;8.8;94
74458;SHT31;62896;51.032;3.712;2023-04-24T02:09:36;8.8;94
74458;SHT31;62896;51.032;3.712;2023-04-24T02:12:56;8.8;94
74458;SHT31;62896;51.032;3.712;2023-04-24T02:16:16;8.7;95
74458;SHT31;62896;51.032;3.712;2023-04-24T02:19:36;8.7;95
74458;SHT31;62896;51.032;3.712;2023-04-24T02:22:56;8.7;95
74458;SHT31;62896;51.032;3.712;2023-04-24T02:26:16;8.7;96
74458;SHT31;62896;51.032;3.712;2023-04-24T02:29:36;8.7;96
74458;SHT31;62896;51.032;3.712;2023-04-24T02:32:56;8.7;96
74458;SHT31;62896;51.032;3.712;2023-04-24T02:36:16;8.7;97
74458;SHT31;62896;51.032;3.712;2023-04-24T02:39:36;8.7;97
74458;SHT31;62896;51.032;3.712;2023-04-24T02:42:56;8.7;97
74458;SHT31;62896;51.032;3.712;2023-04-24T02:46:16;8.7;98
74458;SHT31;62896;51.032;3.712;2023-04-24T02:49:36;8.7;98
74458;SHT31;62896;51.032;3.712;2023-04-24T02:52:56;8.7;98
74458;SHT31;62896;51.032;3.712;2023-04-24T02:56:16;8.8;98
74458;SHT31;62896;51.032;3.712;2023-04-24T02:59:36;8.8;98
74458;SHT31;62896;51.032;3.712;2023-04-24T03:02:56;8.8;98
74458;SHT31;62896;51.032;3.712;2023-04-24T03:06:16;8.9;98
74458;SHT31;62896;51.032;3.712;2023-04-24T03:09:36;8.9;98
74458;SHT31;62896;51.032;3.712;2023-04-24T03:12:56;8.9;98
74458;SHT31;62896;51.032;3.712;2023-04-24T03:16:16;8.9;98
74458;SHT31;62896;51.032;3.712;2023-04-24T03:19:36;8.9;98
74458;SHT31;62896;51.032;3.712;2023-04-24T03:22:56;8.9;98
74458;SHT31;62896;51.032;3.712;2023-04-24T03:26:16;8.8;98
74458;SHT31;62896;51.032;3.712;2023-04-24T03:29:36;8.8;98
74458;SHT31;62896;51.032;3.712;2023-04-24T03:32:56;8.8;98
74458;SHT31;62896;51.032;3.712;2023-04-24T03:36:16;8.8;98
74458;SHT31;62896;51.032;3.712;2023-04-24T03:39:36;8.8;98
74458;SHT31;62896;51.032;3.712;2023-04-24T03:42:56;8.8;98
74458;SHT31;62896;51.032;3.712;2023-04-24T03:46:16;8.7;97
74458;SHT31;62896;51.032;3.712;2023-04-24T03:49:36;8.7;97
74458;SHT31;62896;51.032;3.712;2023-04-24T03:52:56;8.7;97
74458;SHT31;62896;51.032;3.712;2023-04-24T03:56:16;8.6;98
74458;SHT31;62896;51.032;3.712;2023-04-24T03:59:36;8.6;98
74458;SHT31;62896;51.032;3.712;2023-04-24T04:02:56;8.6;98
74458;SHT31;62896;51.032;3.712;2023-04-24T04:06:16;8.5;97
74458;SHT31;62896;51.032;3.712;2023-04-24T04:09:36;8.5;97
74458;SHT31;62896;51.032;3.712;2023-04-24T04:12:56;8.5;97
74458;SHT31;62896;51.032;3.712;2023-04-24T04:16:16;8.5;97
74458;SHT31;62896;51.032;3.712;2023-04-24T04:19:36;8.5;97
74458;SHT31;62896;51.032;3.712;2023-04-24T04:22:56;8.5;97
74458;SHT31;62896;51.032;3.712;2023-04-24T04:26:16;8.5;97
74458;SHT31;62896;51.032;3.712;2023-04-24T04:29:36;8.5;97
74458;SHT31;62896;51.032;3.712;2023-04-24T04:32:56;8.5;97
74458;SHT31;62896;51.032;3.712;2023-04-24T04:36:16;8.5;96
74458;SHT31;62896;51.032;3.712;2023-04-24T04:39:36;8.5;96
74458;SHT31;62896;51.032;3.712;2023-04-24T04:42:56;8.5;96
74458;SHT31;62896;51.032;3.712;2023-04-24T04:46:16;8.5;96
74458;SHT31;62896;51.032;3.712;2023-04-24T04:49:36;8.5;96
74458;SHT31;62896;51.032;3.712;2023-04-24T04:52:56;8.5;96
74458;SHT31;62896;51.032;3.712;2023-04-24T04:56:16;8.5;96
74458;SHT31;62896;51.032;3.712;2023-04-24T04:59:36;8.5;96
74458;SHT31;62896;51.032;3.712;2023-04-24T05:02:56;8.5;96
74458;SHT31;62896;51.032;3.712;2023-04-24T05:06:16;8.5;95
74458;SHT31;62896;51.032;3.712;2023-04-24T05:09:36;8.5;95
74458;SHT31;62896;51.032;3.712;2023-04-24T05:12:56;8.5;95
74458;SHT31;62896;51.032;3.712;2023-04-24T05:16:16;8.5;96
74458;SHT31;62896;51.032;3.712;2023-04-24T05:19:36;8.5;96
74458;SHT31;62896;51.032;3.712;2023-04-24T05:22:56;8.5;96
74458;SHT31;62896;51.032;3.712;2023-04-24T05:26:16;8.4;97
74458;SHT31;62896;51.032;3.712;2023-04-24T05:29:36;8.4;97
74458;SHT31;62896;51.032;3.712;2023-04-24T05:32:56;8.4;97
74458;SHT31;62896;51.032;3.712;2023-04-24T05:36:16;8.4;97
74458;SHT31;62896;51.032;3.712;2023-04-24T05:39:36;8.4;97
74458;SHT31;62896;51.032;3.712;2023-04-24T05:42:56;8.4;97
74458;SHT31;62896;51.032;3.712;2023-04-24T05:46:16;8.4;97
74458;SHT31;62896;51.032;3.712;2023-04-24T05:49:36;8.4;97
74458;SHT31;62896;51.032;3.712;2023-04-24T05:52:56;8.4;97
74458;SHT31;62896;51.032;3.712;2023-04-24T05:56:16;8.5;96
74458;SHT31;62896;51.032;3.712;2023-04-24T05:59:37;8.5;96
74458;SHT31;62896;51.032;3.712;2023-04-24T06:02:56;8.5;96
74458;SHT31;62896;51.032;3.712;2023-04-24T06:06:16;8.7;95
74458;SHT31;62896;51.032;3.712;2023-04-24T06:09:36;8.7;95
74458;SHT31;62896;51.032;3.712;2023-04-24T06:12:56;8.7;95
74458;SHT31;62896;51.032;3.712;2023-04-24T06:16:16;8.7;95
74458;SHT31;62896;51.032;3.712;2023-04-24T06:19:36;8.7;95
74458;SHT31;62896;51.032;3.712;2023-04-24T06:22:56;8.7;95
74458;SHT31;62896;51.032;3.712;2023-04-24T06:26:16;8.8;95
74458;SHT31;62896;51.032;3.712;2023-04-24T06:29:36;8.8;95
74458;SHT31;62896;51.032;3.712;2023-04-24T06:32:56;8.8;95
74458;SHT31;62896;51.032;3.712;2023-04-24T06:36:16;9.2;94
74458;SHT31;62896;51.032;3.712;2023-04-24T06:39:36;9.2;94
74458;SHT31;62896;51.032;3.712;2023-04-24T06:42:56;9.2;94
74458;SHT31;62896;51.032;3.712;2023-04-24T06:46:16;9;95
74458;SHT31;62896;51.032;3.712;2023-04-24T06:49:37;9;95
74458;SHT31;62896;51.032;3.712;2023-04-24T06:52:56;9;95
74458;SHT31;62896;51.032;3.712;2023-04-24T06:56:16;9.1;96
74458;SHT31;62896;51.032;3.712;2023-04-24T06:59:36;9.1;96
74458;SHT31;62896;51.032;3.712;2023-04-24T07:02:56;9.1;96
74458;SHT31;62896;51.032;3.712;2023-04-24T07:06:16;9.2;94
74458;SHT31;62896;51.032;3.712;2023-04-24T07:09:36;9.2;94
74458;SHT31;62896;51.032;3.712;2023-04-24T07:12:56;9.2;94
74458;SHT31;62896;51.032;3.712;2023-04-24T07:16:16;9.3;93
74458;SHT31;62896;51.032;3.712;2023-04-24T07:19:36;9.3;93
74458;SHT31;62896;51.032;3.712;2023-04-24T07:22:56;9.3;93
74458;SHT31;62896;51.032;3.712;2023-04-24T07:26:16;9.4;92
74458;SHT31;62896;51.032;3.712;2023-04-24T07:29:36;9.4;92
74458;SHT31;62896;51.032;3.712;2023-04-24T07:32:56;9.4;92
74458;SHT31;62896;51.032;3.712;2023-04-24T07:36:16;9.4;92
74458;SHT31;62896;51.032;3.712;2023-04-24T07:39:36;9.4;92
74458;SHT31;62896;51.032;3.712;2023-04-24T07:42:56;9.4;92
74458;SHT31;62896;51.032;3.712;2023-04-24T07:46:16;9.3;91
74458;SHT31;62896;51.032;3.712;2023-04-24T07:49:36;9.3;91
74458;SHT31;62896;51.032;3.712;2023-04-24T07:52:56;9.3;91
74458;SHT31;62896;51.032;3.712;2023-04-24T07:56:16;9.4;90
74458;SHT31;62896;51.032;3.712;2023-04-24T07:59:36;9.4;90
74458;SHT31;62896;51.032;3.712;2023-04-24T08:02:56;9.4;90
74458;SHT31;62896;51.032;3.712;2023-04-24T08:06:16;10;88
74458;SHT31;62896;51.032;3.712;2023-04-24T08:09:36;10;88
74458;SHT31;62896;51.032;3.712;2023-04-24T08:12:56;10;88
74458;SHT31;62896;51.032;3.712;2023-04-24T08:16:16;10.6;84
74458;SHT31;62896;51.032;3.712;2023-04-24T08:19:36;10.6;84
74458;SHT31;62896;51.032;3.712;2023-04-24T08:22:56;10.6;84
74458;SHT31;62896;51.032;3.712;2023-04-24T08:26:16;10.4;82
74458;SHT31;62896;51.032;3.712;2023-04-24T08:29:36;10.4;82
74458;SHT31;62896;51.032;3.712;2023-04-24T08:32:56;10.4;82
74458;SHT31;62896;51.032;3.712;2023-04-24T08:36:16;10.6;80
74458;SHT31;62896;51.032;3.712;2023-04-24T08:39:37;10.6;80
74458;SHT31;62896;51.032;3.712;2023-04-24T08:42:56;10.6;80
74458;SHT31;62896;51.032;3.712;2023-04-24T08:46:16;11;78
74458;SHT31;62896;51.032;3.712;2023-04-24T08:49:36;11;78
74458;SHT31;62896;51.032;3.712;2023-04-24T08:52:56;11;78
74458;SHT31;62896;51.032;3.712;2023-04-24T08:56:16;10.8;77
74458;SHT31;62896;51.032;3.712;2023-04-24T08:59:36;10.8;77
74458;SHT31;62896;51.032;3.712;2023-04-24T09:02:56;10.8;77
74458;SHT31;62896;51.032;3.712;2023-04-24T09:06:17;10.9;76
74458;SHT31;62896;51.032;3.712;2023-04-24T09:09:36;10.9;76
74458;SHT31;62896;51.032;3.712;2023-04-24T09:12:56;10.9;76
74458;SHT31;62896;51.032;3.712;2023-04-24T09:16:16;11;75
74458;SHT31;62896;51.032;3.712;2023-04-24T09:19:36;11;75
74458;SHT31;62896;51.032;3.712;2023-04-24T09:22:57;11;75
74458;SHT31;62896;51.032;3.712;2023-04-24T09:26:16;11.2;74
74458;SHT31;62896;51.032;3.712;2023-04-24T09:29:36;11.2;74
74458;SHT31;62896;51.032;3.712;2023-04-24T09:33:12;11.2;74
74458;SHT31;62896;51.032;3.712;2023-04-24T09:36:17;11.4;72
74458;SHT31;62896;51.032;3.712;2023-04-24T09:39:36;11.4;72
74458;SHT31;62896;51.032;3.712;2023-04-24T09:42:56;11.4;72
74458;SHT31;62896;51.032;3.712;2023-04-24T09:46:16;11.6;71
74458;SHT31;62896;51.032;3.712;2023-04-24T09:49:36;11.6;71
74458;SHT31;62896;51.032;3.712;2023-04-24T09:52:57;11.6;71
74458;SHT31;62896;51.032;3.712;2023-04-24T09:56:16;11.6;70
74458;SHT31;62896;51.032;3.712;2023-04-24T09:59:40;11.6;70
74458;SHT31;62896;51.032;3.712;2023-04-24T10:02:57;11.6;70
74458;SHT31;62896;51.032;3.712;2023-04-24T10:06:16;11.7;69
74458;SHT31;62896;51.032;3.712;2023-04-24T10:09:36;11.7;69
74458;SHT31;62896;51.032;3.712;2023-04-24T10:12:56;11.7;69
74458;SHT31;62896;51.032;3.712;2023-04-24T10:16:16;11.8;69
74458;SHT31;62896;51.032;3.712;2023-04-24T10:19:36;11.8;69
74458;SHT31;62896;51.032;3.712;2023-04-24T10:22:57;11.8;69
74458;SHT31;62896;51.032;3.712;2023-04-24T10:26:16;11.8;69
74458;SHT31;62896;51.032;3.712;2023-04-24T10:29:36;11.8;69
74458;SHT31;62896;51.032;3.712;2023-04-24T10:32:56;11.8;69
74458;SHT31;62896;51.032;3.712;2023-04-24T10:36:16;12.2;67
74458;SHT31;62896;51.032;3.712;2023-04-24T10:39:36;12.2;67
74458;SHT31;62896;51.032;3.712;2023-04-24T10:42:56;12.2;67
74458;SHT31;62896;51.032;3.712;2023-04-24T10:46:19;12.6;65
74458;SHT31;62896;51.032;3.712;2023-04-24T10:49:36;12.6;65
74458;SHT31;62896;51.032;3.712;2023-04-24T10:53:04;12.6;65
74458;SHT31;62896;51.032;3.712;2023-04-24T10:56:17;12.9;65
74458;SHT31;62896;51.032;3.712;2023-04-24T10:59:36;12.9;65
74458;SHT31;62896;51.032;3.712;2023-04-24T11:02:57;12.9;65
74458;SHT31;62896;51.032;3.712;2023-04-24T11:06:16;12.7;65
74458;SHT31;62896;51.032;3.712;2023-04-24T11:09:37;12.7;65
74458;SHT31;62896;51.032;3.712;2023-04-24T11:12:56;12.7;65
74458;SHT31;62896;51.032;3.712;2023-04-24T11:16:20;12.6;65
74458;SHT31;62896;51.032;3.712;2023-04-24T11:19:36;12.6;65
74458;SHT31;62896;51.032;3.712;2023-04-24T11:22:58;12.6;65
74458;SHT31;62896;51.032;3.712;2023-04-24T11:26:17;13.1;64
74458;SHT31;62896;51.032;3.712;2023-04-24T11:29:38;13.1;64
74458;SHT31;62896;51.032;3.712;2023-04-24T11:32:56;13.1;64
74458;SHT31;62896;51.032;3.712;2023-04-24T11:36:16;13.6;61
74458;SHT31;62896;51.032;3.712;2023-04-24T11:39:36;13.6;61
74458;SHT31;62896;51.032;3.712;2023-04-24T11:42:56;13.6;61
74458;SHT31;62896;51.032;3.712;2023-04-24T11:46:17;13.6;59
74458;SHT31;62896;51.032;3.712;2023-04-24T11:49:36;13.6;59
74458;SHT31;62896;51.032;3.712;2023-04-24T11:52:56;13.6;59
74458;SHT31;62896;51.032;3.712;2023-04-24T11:56:17;14;59
74458;SHT31;62896;51.032;3.712;2023-04-24T11:59:36;14;59
74458;SHT31;62896;51.032;3.712;2023-04-24T12:03:04;14;59
74458;SHT31;62896;51.032;3.712;2023-04-24T12:06:16;14.5;56
74458;SHT31;62896;51.032;3.712;2023-04-24T12:09:40;14.5;56
74458;SHT31;62896;51.032;3.712;2023-04-24T12:12:57;14.5;56
74458;SHT31;62896;51.032;3.712;2023-04-24T12:16:16;14.8;55
74458;SHT31;62896;51.032;3.712;2023-04-24T12:19:36;14.8;55
74458;SHT31;62896;51.032;3.712;2023-04-24T12:22:57;14.8;55
74458;SHT31;62896;51.032;3.712;2023-04-24T12:26:17;15.3;54
74458;SHT31;62896;51.032;3.712;2023-04-24T12:29:36;15.3;54
74458;SHT31;62896;51.032;3.712;2023-04-24T12:32:57;15.3;54
74458;SHT31;62896;51.032;3.712;2023-04-24T12:36:16;15.5;53
74458;SHT31;62896;51.032;3.712;2023-04-24T12:39:36;15.5;53
74458;SHT31;62896;51.032;3.712;2023-04-24T12:42:56;15.5;53
74458;SHT31;62896;51.032;3.712;2023-04-24T12:46:16;15.3;53
74458;SHT31;62896;51.032;3.712;2023-04-24T12:49:36;15.3;53
74458;SHT31;62896;51.032;3.712;2023-04-24T12:52:56;15.3;53
74458;SHT31;62896;51.032;3.712;2023-04-24T12:56:16;14.6;55
74458;SHT31;62896;51.032;3.712;2023-04-24T12:59:36;14.6;55
74458;SHT31;62896;51.032;3.712;2023-04-24T13:02:56;14.6;55
74458;SHT31;62896;51.032;3.712;2023-04-24T13:06:16;13.9;55
74458;SHT31;62896;51.032;3.712;2023-04-24T13:09:36;13.9;55
74458;SHT31;62896;51.032;3.712;2023-04-24T13:12:57;13.9;55
74458;SHT31;62896;51.032;3.712;2023-04-24T13:16:16;14.6;53
74458;SHT31;62896;51.032;3.712;2023-04-24T13:19:37;14.6;53
74458;SHT31;62896;51.032;3.712;2023-04-24T13:22:56;14.6;53
74458;SHT31;62896;51.032;3.712;2023-04-24T13:26:17;15.1;52
74458;SHT31;62896;51.032;3.712;2023-04-24T13:29:37;15.1;52
74458;SHT31;62896;51.032;3.712;2023-04-24T13:32:57;15.1;52
74458;SHT31;62896;51.032;3.712;2023-04-24T13:36:16;15.5;50
74458;SHT31;62896;51.032;3.712;2023-04-24T13:39:37;15.5;50
74458;SHT31;62896;51.032;3.712;2023-04-24T13:42:57;15.5;50
74458;SHT31;62896;51.032;3.712;2023-04-24T13:46:17;16.2;48
74458;SHT31;62896;51.032;3.712;2023-04-24T13:49:37;16.2;48
74458;SHT31;62896;51.032;3.712;2023-04-24T13:52:57;16.2;48
74458;SHT31;62896;51.032;3.712;2023-04-24T13:56:17;17;47
74458;SHT31;62896;51.032;3.712;2023-04-24T13:59:37;17;47
74458;SHT31;62896;51.032;3.712;2023-04-24T14:02:57;17;47
74458;SHT31;62896;51.032;3.712;2023-04-24T14:06:17;16.5;47
74458;SHT31;62896;51.032;3.712;2023-04-24T14:09:37;16.5;47
74458;SHT31;62896;51.032;3.712;2023-04-24T14:12:57;16.5;47
74458;SHT31;62896;51.032;3.712;2023-04-24T14:16:17;16.7;46
74458;SHT31;62896;51.032;3.712;2023-04-24T14:19:37;16.7;46
74458;SHT31;62896;51.032;3.712;2023-04-24T14:22:57;16.7;46
74458;SHT31;62896;51.032;3.712;2023-04-24T14:26:17;17.4;45
74458;SHT31;62896;51.032;3.712;2023-04-24T14:29:37;17.4;45
74458;SHT31;62896;51.032;3.712;2023-04-24T14:32:57;17.4;45
74458;SHT31;62896;51.032;3.712;2023-04-24T14:36:17;16.6;47
74458;SHT31;62896;51.032;3.712;2023-04-24T14:39:37;16.6;47
74458;SHT31;62896;51.032;3.712;2023-04-24T14:42:57;16.6;47
74458;SHT31;62896;51.032;3.712;2023-04-24T14:46:17;16.3;46
74458;SHT31;62896;51.032;3.712;2023-04-24T14:49:37;16.3;46
74458;SHT31;62896;51.032;3.712;2023-04-24T14:52:57;16.3;46
74458;SHT31;62896;51.032;3.712;2023-04-24T14:56:17;15.4;49
74458;SHT31;62896;51.032;3.712;2023-04-24T14:59:37;15.4;49
74458;SHT31;62896;51.032;3.712;2023-04-24T15:02:57;15.4;49
74458;SHT31;62896;51.032;3.712;2023-04-24T15:06:17;14.4;52
74458;SHT31;62896;51.032;3.712;2023-04-24T15:09:37;14.4;52
74458;SHT31;62896;51.032;3.712;2023-04-24T15:12:57;14.4;52
74458;SHT31;62896;51.032;3.712;2023-04-24T15:16:17;14.2;53
74458;SHT31;62896;51.032;3.712;2023-04-24T15:19:37;14.2;53
74458;SHT31;62896;51.032;3.712;2023-04-24T15:22:57;14.2;53
74458;SHT31;62896;51.032;3.712;2023-04-24T15:26:17;14.2;52
74458;SHT31;62896;51.032;3.712;2023-04-24T15:29:37;14.2;52
74458;SHT31;62896;51.032;3.712;2023-04-24T15:32:57;14.2;52
74458;SHT31;62896;51.032;3.712;2023-04-24T15:36:17;14;52
74458;SHT31;62896;51.032;3.712;2023-04-24T15:39:37;14;52
74458;SHT31;62896;51.032;3.712;2023-04-24T15:42:57;14;52
74458;SHT31;62896;51.032;3.712;2023-04-24T15:46:17;13.9;52
74458;SHT31;62896;51.032;3.712;2023-04-24T15:49:37;13.9;52
74458;SHT31;62896;51.032;3.712;2023-04-24T15:52:57;13.9;52
74458;SHT31;62896;51.032;3.712;2023-04-24T15:56:17;14.6;51
74458;SHT31;62896;51.032;3.712;2023-04-24T15:59:37;14.6;51
74458;SHT31;62896;51.032;3.712;2023-04-24T16:02:57;14.6;51
74458;SHT31;62896;51.032;3.712;2023-04-24T16:06:17;14.9;49
74458;SHT31;62896;51.032;3.712;2023-04-24T16:09:37;14.9;49
74458;SHT31;62896;51.032;3.712;2023-04-24T16:12:57;14.9;49
74458;SHT31;62896;51.032;3.712;2023-04-24T16:16:17;14.1;52
74458;SHT31;62896;51.032;3.712;2023-04-24T16:19:37;14.1;52
74458;SHT31;62896;51.032;3.712;2023-04-24T16:22:57;14.1;52
74458;SHT31;62896;51.032;3.712;2023-04-24T16:26:17;13.6;54
74458;SHT31;62896;51.032;3.712;2023-04-24T16:29:37;13.6;54
74458;SHT31;62896;51.032;3.712;2023-04-24T16:32:57;13.6;54
74458;SHT31;62896;51.032;3.712;2023-04-24T16:36:17;13.4;56
74458;SHT31;62896;51.032;3.712;2023-04-24T16:39:37;13.4;56
74458;SHT31;62896;51.032;3.712;2023-04-24T16:42:57;13.4;56
74458;SHT31;62896;51.032;3.712;2023-04-24T16:46:17;13.1;57
74458;SHT31;62896;51.032;3.712;2023-04-24T16:49:37;13.1;57
74458;SHT31;62896;51.032;3.712;2023-04-24T16:52:57;13.1;57
74458;SHT31;62896;51.032;3.712;2023-04-24T16:56:17;13;58
74458;SHT31;62896;51.032;3.712;2023-04-24T16:59:37;13;58
74458;SHT31;62896;51.032;3.712;2023-04-24T17:02:57;13;58
74458;SHT31;62896;51.032;3.712;2023-04-24T17:06:17;13.1;56
74458;SHT31;62896;51.032;3.712;2023-04-24T17:09:37;13.1;56
74458;SHT31;62896;51.032;3.712;2023-04-24T17:12:57;13.1;56
74458;SHT31;62896;51.032;3.712;2023-04-24T17:16:17;12.8;57
74458;SHT31;62896;51.032;3.712;2023-04-24T17:19:37;12.8;57
74458;SHT31;62896;51.032;3.712;2023-04-24T17:22:57;12.8;57
74458;SHT31;62896;51.032;3.712;2023-04-24T17:26:17;12.5;58
74458;SHT31;62896;51.032;3.712;2023-04-24T17:29:37;12.5;58
74458;SHT31;62896;51.032;3.712;2023-04-24T17:32:57;12.5;58
74458;SHT31;62896;51.032;3.712;2023-04-24T17:36:17;12.5;58
74458;SHT31;62896;51.032;3.712;2023-04-24T17:39:37;12.5;58
74458;SHT31;62896;51.032;3.712;2023-04-24T17:42:57;12.5;58
74458;SHT31;62896;51.032;3.712;2023-04-24T17:46:17;12.2;60
74458;SHT31;62896;51.032;3.712;2023-04-24T17:49:37;12.2;60
74458;SHT31;62896;51.032;3.712;2023-04-24T17:52:57;12.2;60
74458;SHT31;62896;51.032;3.712;2023-04-24T17:56:17;12.1;61
74458;SHT31;62896;51.032;3.712;2023-04-24T17:59:37;12.1;61
74458;SHT31;62896;51.032;3.712;2023-04-24T18:02:57;12.1;61
74458;SHT31;62896;51.032;3.712;2023-04-24T18:06:17;11.8;62
74458;SHT31;62896;51.032;3.712;2023-04-24T18:09:37;11.8;62
74458;SHT31;62896;51.032;3.712;2023-04-24T18:12:57;11.8;62
74458;SHT31;62896;51.032;3.712;2023-04-24T18:16:17;11.8;62
74458;SHT31;62896;51.032;3.712;2023-04-24T18:19:37;11.8;62
74458;SHT31;62896;51.032;3.712;2023-04-24T18:22:57;11.8;62
74458;SHT31;62896;51.032;3.712;2023-04-24T18:26:17;11.6;63
74458;SHT31;62896;51.032;3.712;2023-04-24T18:29:37;11.6;63
74458;SHT31;62896;51.032;3.712;2023-04-24T18:32:57;11.6;63
74458;SHT31;62896;51.032;3.712;2023-04-24T18:36:17;11.4;66
74458;SHT31;62896;51.032;3.712;2023-04-24T18:39:37;11.4;66
74458;SHT31;62896;51.032;3.712;2023-04-24T18:42:57;11.4;66
74458;SHT31;62896;51.032;3.712;2023-04-24T18:46:17;11.3;67
74458;SHT31;62896;51.032;3.712;2023-04-24T18:49:37;11.3;67
74458;SHT31;62896;51.032;3.712;2023-04-24T18:52:57;11.3;67
74458;SHT31;62896;51.032;3.712;2023-04-24T18:56:17;11.1;69
74458;SHT31;62896;51.032;3.712;2023-04-24T18:59:37;11.1;69
74458;SHT31;62896;51.032;3.712;2023-04-24T19:02:57;11.1;69
74458;SHT31;62896;51.032;3.712;2023-04-24T19:06:17;10.9;72
74458;SHT31;62896;51.032;3.712;2023-04-24T19:09:37;10.9;72
74458;SHT31;62896;51.032;3.712;2023-04-24T19:12:57;10.9;72
74458;SHT31;62896;51.032;3.712;2023-04-24T19:16:17;10.9;73
74458;SHT31;62896;51.032;3.712;2023-04-24T19:19:37;10.9;73
74458;SHT31;62896;51.032;3.712;2023-04-24T19:22:57;10.9;73
74458;SHT31;62896;51.032;3.712;2023-04-24T19:26:17;10.6;75
74458;SHT31;62896;51.032;3.712;2023-04-24T19:29:37;10.6;75
74458;SHT31;62896;51.032;3.712;2023-04-24T19:32:57;10.6;75
74458;SHT31;62896;51.032;3.712;2023-04-24T19:36:17;10.5;78
74458;SHT31;62896;51.032;3.712;2023-04-24T19:39:37;10.5;78
74458;SHT31;62896;51.032;3.712;2023-04-24T19:42:57;10.5;78
74458;SHT31;62896;51.032;3.712;2023-04-24T19:46:17;10.3;79
74458;SHT31;62896;51.032;3.712;2023-04-24T19:49:37;10.3;79
74458;SHT31;62896;51.032;3.712;2023-04-24T19:52:57;10.3;79
74458;SHT31;62896;51.032;3.712;2023-04-24T19:56:17;10.3;78
74458;SHT31;62896;51.032;3.712;2023-04-24T19:59:37;10.3;78
74458;SHT31;62896;51.032;3.712;2023-04-24T20:02:57;10.3;78
74458;SHT31;62896;51.032;3.712;2023-04-24T20:06:17;10.2;78
74458;SHT31;62896;51.032;3.712;2023-04-24T20:09:37;10.2;78
74458;SHT31;62896;51.032;3.712;2023-04-24T20:12:57;10.2;78
74458;SHT31;62896;51.032;3.712;2023-04-24T20:16:17;10.1;78
74458;SHT31;62896;51.032;3.712;2023-04-24T20:19:37;10.1;78
74458;SHT31;62896;51.032;3.712;2023-04-24T20:22:57;10.1;78
74458;SHT31;62896;51.032;3.712;2023-04-24T20:26:17;10;78
74458;SHT31;62896;51.032;3.712;2023-04-24T20:29:37;10;78
74458;SHT31;62896;51.032;3.712;2023-04-24T20:32:57;10;78
74458;SHT31;62896;51.032;3.712;2023-04-24T20:36:17;10;77
74458;SHT31;62896;51.032;3.712;2023-04-24T20:39:37;10;77
74458;SHT31;62896;51.032;3.712;2023-04-24T20:42:57;10;77
74458;SHT31;62896;51.032;3.712;2023-04-24T20:46:17;9.9;77
74458;SHT31;62896;51.032;3.712;2023-04-24T20:49:37;9.9;77
74458;SHT31;62896;51.032;3.712;2023-04-24T20:52:57;9.9;77
74458;SHT31;62896;51.032;3.712;2023-04-24T20:56:17;9.8;76
74458;SHT31;62896;51.032;3.712;2023-04-24T20:59:37;9.8;76
74458;SHT31;62896;51.032;3.712;2023-04-24T21:02:57;9.8;76
74458;SHT31;62896;51.032;3.712;2023-04-24T21:06:17;9.6;76
74458;SHT31;62896;51.032;3.712;2023-04-24T21:09:37;9.6;76
74458;SHT31;62896;51.032;3.712;2023-04-24T21:12:57;9.6;76
74458;SHT31;62896;51.032;3.712;2023-04-24T21:16:17;9.5;75
74458;SHT31;62896;51.032;3.712;2023-04-24T21:19:37;9.5;75
74458;SHT31;62896;51.032;3.712;2023-04-24T21:22:57;9.5;75
74458;SHT31;62896;51.032;3.712;2023-04-24T21:26:17;9.5;74
74458;SHT31;62896;51.032;3.712;2023-04-24T21:29:37;9.5;74
74458;SHT31;62896;51.032;3.712;2023-04-24T21:32:57;9.5;74
74458;SHT31;62896;51.032;3.712;2023-04-24T21:36:17;9.4;75
74458;SHT31;62896;51.032;3.712;2023-04-24T21:39:37;9.4;75
74458;SHT31;62896;51.032;3.712;2023-04-24T21:42:57;9.4;75
74458;SHT31;62896;51.032;3.712;2023-04-24T21:46:17;9.3;75
74458;SHT31;62896;51.032;3.712;2023-04-24T21:49:37;9.3;75
74458;SHT31;62896;51.032;3.712;2023-04-24T21:52:57;9.3;75
74458;SHT31;62896;51.032;3.712;2023-04-24T21:56:17;9.2;75
74458;SHT31;62896;51.032;3.712;2023-04-24T21:59:37;9.2;75
74458;SHT31;62896;51.032;3.712;2023-04-24T22:02:57;9.2;75
74458;SHT31;62896;51.032;3.712;2023-04-24T22:06:17;9.2;76
74458;SHT31;62896;51.032;3.712;2023-04-24T22:09:37;9.2;76
74458;SHT31;62896;51.032;3.712;2023-04-24T22:12:57;9.2;76
74458;SHT31;62896;51.032;3.712;2023-04-24T22:16:17;9.3;76
74458;SHT31;62896;51.032;3.712;2023-04-24T22:19:37;9.3;76
74458;SHT31;62896;51.032;3.712;2023-04-24T22:22:57;9.3;76
74458;SHT31;62896;51.032;3.712;2023-04-24T22:26:17;9.3;76
74458;SHT31;62896;51.032;3.712;2023-04-24T22:29:37;9.3;76
74458;SHT31;62896;51.032;3.712;2023-04-24T22:32:57;9.3;76
74458;SHT31;62896;51.032;3.712;2023-04-24T22:36:17;9.3;75
74458;SHT31;62896;51.032;3.712;2023-04-24T22:39:37;9.3;75
74458;SHT31;62896;51.032;3.712;2023-04-24T22:42:57;9.3;75